sensor_id;sensor_type;location;lat;lon;timestamp;P1;durP1;ratioP1;P2;durP2;ratioP2
67556;SDS011;54387;53.526;49.300;2022-10-16T00:00:43;9.25;;;4.88;;
67556;SDS011;54387;53.526;49.300;2022-10-16T00:03:14;8.88;;;5.15;;
67556;SDS011;54387;53.526;49.300;2022-10-16T00:05:46;11.63;;;5.93;;
67556;SDS011;54387;53.526;49.300;2022-10-16T00:08:17;8.45;;;5.38;;
67556;SDS011;54387;53.526;49.300;2022-10-16T00:10:49;7.68;;;5.07;;
67556;SDS011;54387;53.526;49.300;2022-10-16T00:13:20;9.32;;;5.25;;
67556;SDS011;54387;53.526;49.300;2022-10-16T00:15:54;9.23;;;5.10;;
67556;SDS011;54387;53.526;49.300;2022-10-16T00:18:27;11.93;;;5.32;;
67556;SDS011;54387;53.526;49.300;2022-10-16T00:21:07;6.75;;;4.93;;
67556;SDS011;54387;53.526;49.300;2022-10-16T00:23:39;10.18;;;5.18;;
67556;SDS011;54387;53.526;49.300;2022-10-16T00:26:12;17.17;;;9.23;;
67556;SDS011;54387;53.526;49.300;2022-10-16T00:28:49;8.00;;;5.05;;
67556;SDS011;54387;53.526;49.300;2022-10-16T00:31:22;9.75;;;5.30;;
67556;SDS011;54387;53.526;49.300;2022-10-16T00:33:54;8.35;;;5.38;;
67556;SDS011;54387;53.526;49.300;2022-10-16T00:36:25;11.60;;;5.60;;
67556;SDS011;54387;53.526;49.300;2022-10-16T00:38:58;8.75;;;5.43;;
67556;SDS011;54387;53.526;49.300;2022-10-16T00:41:32;7.93;;;5.20;;
67556;SDS011;54387;53.526;49.300;2022-10-16T00:44:40;8.18;;;5.60;;
67556;SDS011;54387;53.526;49.300;2022-10-16T00:47:26;7.97;;;5.18;;
67556;SDS011;54387;53.526;49.300;2022-10-16T00:50:09;7.30;;;5.30;;
67556;SDS011;54387;53.526;49.300;2022-10-16T00:52:43;7.30;;;4.82;;
67556;SDS011;54387;53.526;49.300;2022-10-16T00:55:17;9.30;;;5.30;;
67556;SDS011;54387;53.526;49.300;2022-10-16T00:57:50;8.85;;;5.57;;
67556;SDS011;54387;53.526;49.300;2022-10-16T01:00:23;9.75;;;5.38;;
67556;SDS011;54387;53.526;49.300;2022-10-16T01:02:58;10.90;;;5.68;;
67556;SDS011;54387;53.526;49.300;2022-10-16T01:05:33;6.80;;;5.05;;
67556;SDS011;54387;53.526;49.300;2022-10-16T01:08:14;7.70;;;5.18;;
67556;SDS011;54387;53.526;49.300;2022-10-16T01:10:57;8.43;;;5.15;;
67556;SDS011;54387;53.526;49.300;2022-10-16T01:16:15;7.97;;;4.63;;
67556;SDS011;54387;53.526;49.300;2022-10-16T01:21:39;11.18;;;6.43;;
67556;SDS011;54387;53.526;49.300;2022-10-16T01:27:25;11.38;;;5.32;;
67556;SDS011;54387;53.526;49.300;2022-10-16T01:33:04;8.38;;;5.40;;
67556;SDS011;54387;53.526;49.300;2022-10-16T01:35:46;8.23;;;5.32;;
67556;SDS011;54387;53.526;49.300;2022-10-16T01:38:30;8.95;;;5.65;;
67556;SDS011;54387;53.526;49.300;2022-10-16T01:41:19;12.85;;;5.97;;
67556;SDS011;54387;53.526;49.300;2022-10-16T01:44:02;8.55;;;5.95;;
67556;SDS011;54387;53.526;49.300;2022-10-16T01:46:37;9.88;;;5.80;;
67556;SDS011;54387;53.526;49.300;2022-10-16T01:51:44;11.30;;;5.80;;
67556;SDS011;54387;53.526;49.300;2022-10-16T01:54:19;10.63;;;6.57;;
67556;SDS011;54387;53.526;49.300;2022-10-16T01:56:52;11.27;;;6.43;;
67556;SDS011;54387;53.526;49.300;2022-10-16T01:59:26;9.80;;;6.10;;
67556;SDS011;54387;53.526;49.300;2022-10-16T02:02:03;11.82;;;6.68;;
67556;SDS011;54387;53.526;49.300;2022-10-16T02:04:42;10.35;;;6.68;;
67556;SDS011;54387;53.526;49.300;2022-10-16T02:07:17;12.48;;;7.00;;
67556;SDS011;54387;53.526;49.300;2022-10-16T02:09:48;11.23;;;6.78;;
67556;SDS011;54387;53.526;49.300;2022-10-16T02:14:59;11.82;;;6.97;;
67556;SDS011;54387;53.526;49.300;2022-10-16T02:17:30;11.55;;;7.30;;
67556;SDS011;54387;53.526;49.300;2022-10-16T02:20:03;12.13;;;6.57;;
67556;SDS011;54387;53.526;49.300;2022-10-16T02:22:40;9.57;;;6.88;;
67556;SDS011;54387;53.526;49.300;2022-10-16T02:25:18;13.85;;;6.93;;
67556;SDS011;54387;53.526;49.300;2022-10-16T02:28:08;11.15;;;6.85;;
67556;SDS011;54387;53.526;49.300;2022-10-16T02:30:50;12.60;;;7.75;;
67556;SDS011;54387;53.526;49.300;2022-10-16T02:33:28;11.73;;;7.20;;
67556;SDS011;54387;53.526;49.300;2022-10-16T02:36:02;12.10;;;8.17;;
67556;SDS011;54387;53.526;49.300;2022-10-16T02:38:34;12.57;;;7.70;;
67556;SDS011;54387;53.526;49.300;2022-10-16T02:41:07;12.15;;;7.90;;
67556;SDS011;54387;53.526;49.300;2022-10-16T02:43:38;13.68;;;8.35;;
67556;SDS011;54387;53.526;49.300;2022-10-16T02:46:10;13.05;;;7.90;;
67556;SDS011;54387;53.526;49.300;2022-10-16T02:48:41;14.40;;;8.73;;
67556;SDS011;54387;53.526;49.300;2022-10-16T02:51:13;16.08;;;8.93;;
67556;SDS011;54387;53.526;49.300;2022-10-16T02:53:45;14.25;;;8.10;;
67556;SDS011;54387;53.526;49.300;2022-10-16T02:56:16;16.48;;;8.90;;
67556;SDS011;54387;53.526;49.300;2022-10-16T02:58:48;18.42;;;9.00;;
67556;SDS011;54387;53.526;49.300;2022-10-16T03:01:19;20.00;;;8.88;;
67556;SDS011;54387;53.526;49.300;2022-10-16T03:03:50;15.45;;;10.15;;
67556;SDS011;54387;53.526;49.300;2022-10-16T03:06:22;15.25;;;8.80;;
67556;SDS011;54387;53.526;49.300;2022-10-16T03:08:54;20.15;;;8.90;;
67556;SDS011;54387;53.526;49.300;2022-10-16T03:11:25;20.17;;;11.30;;
67556;SDS011;54387;53.526;49.300;2022-10-16T03:13:57;18.10;;;10.07;;
67556;SDS011;54387;53.526;49.300;2022-10-16T03:16:28;14.48;;;9.52;;
67556;SDS011;54387;53.526;49.300;2022-10-16T03:19:00;16.45;;;8.85;;
67556;SDS011;54387;53.526;49.300;2022-10-16T03:21:32;15.85;;;9.63;;
67556;SDS011;54387;53.526;49.300;2022-10-16T03:24:03;16.95;;;8.60;;
67556;SDS011;54387;53.526;49.300;2022-10-16T03:26:35;21.95;;;10.50;;
67556;SDS011;54387;53.526;49.300;2022-10-16T03:29:07;22.10;;;10.55;;
67556;SDS011;54387;53.526;49.300;2022-10-16T03:31:38;19.15;;;10.90;;
67556;SDS011;54387;53.526;49.300;2022-10-16T03:34:10;22.95;;;11.20;;
67556;SDS011;54387;53.526;49.300;2022-10-16T03:36:41;18.55;;;10.95;;
67556;SDS011;54387;53.526;49.300;2022-10-16T03:39:13;23.90;;;11.30;;
67556;SDS011;54387;53.526;49.300;2022-10-16T03:41:44;18.90;;;10.57;;
67556;SDS011;54387;53.526;49.300;2022-10-16T03:44:17;19.73;;;10.80;;
67556;SDS011;54387;53.526;49.300;2022-10-16T03:46:48;21.55;;;10.20;;
67556;SDS011;54387;53.526;49.300;2022-10-16T03:49:20;18.02;;;9.98;;
67556;SDS011;54387;53.526;49.300;2022-10-16T03:51:51;19.67;;;10.50;;
67556;SDS011;54387;53.526;49.300;2022-10-16T03:54:22;17.42;;;10.35;;
67556;SDS011;54387;53.526;49.300;2022-10-16T03:56:54;15.05;;;9.38;;
67556;SDS011;54387;53.526;49.300;2022-10-16T03:59:25;23.90;;;9.75;;
67556;SDS011;54387;53.526;49.300;2022-10-16T04:01:57;18.17;;;10.27;;
67556;SDS011;54387;53.526;49.300;2022-10-16T04:04:28;16.42;;;9.82;;
67556;SDS011;54387;53.526;49.300;2022-10-16T04:07:00;19.35;;;11.13;;
67556;SDS011;54387;53.526;49.300;2022-10-16T04:09:31;15.60;;;8.93;;
67556;SDS011;54387;53.526;49.300;2022-10-16T04:12:03;14.00;;;8.15;;
67556;SDS011;54387;53.526;49.300;2022-10-16T04:14:34;24.58;;;10.00;;
67556;SDS011;54387;53.526;49.300;2022-10-16T04:17:06;10.75;;;7.47;;
67556;SDS011;54387;53.526;49.300;2022-10-16T04:19:37;12.90;;;8.52;;
67556;SDS011;54387;53.526;49.300;2022-10-16T04:22:09;10.45;;;7.38;;
67556;SDS011;54387;53.526;49.300;2022-10-16T04:24:40;12.52;;;7.82;;
67556;SDS011;54387;53.526;49.300;2022-10-16T04:27:12;13.35;;;7.43;;
67556;SDS011;54387;53.526;49.300;2022-10-16T04:29:43;12.57;;;6.18;;
67556;SDS011;54387;53.526;49.300;2022-10-16T04:32:15;10.52;;;6.22;;
67556;SDS011;54387;53.526;49.300;2022-10-16T04:34:46;10.88;;;6.10;;
67556;SDS011;54387;53.526;49.300;2022-10-16T04:37:18;11.50;;;6.07;;
67556;SDS011;54387;53.526;49.300;2022-10-16T04:39:49;8.65;;;5.78;;
67556;SDS011;54387;53.526;49.300;2022-10-16T04:42:21;8.38;;;6.07;;
67556;SDS011;54387;53.526;49.300;2022-10-16T04:44:52;9.32;;;5.55;;
67556;SDS011;54387;53.526;49.300;2022-10-16T04:47:24;10.15;;;6.53;;
67556;SDS011;54387;53.526;49.300;2022-10-16T04:49:55;10.50;;;5.55;;
67556;SDS011;54387;53.526;49.300;2022-10-16T04:52:27;7.03;;;5.85;;
67556;SDS011;54387;53.526;49.300;2022-10-16T04:54:59;8.13;;;5.45;;
67556;SDS011;54387;53.526;49.300;2022-10-16T04:57:33;9.02;;;5.38;;
67556;SDS011;54387;53.526;49.300;2022-10-16T05:00:05;8.43;;;5.53;;
67556;SDS011;54387;53.526;49.300;2022-10-16T05:02:37;6.80;;;4.72;;
67556;SDS011;54387;53.526;49.300;2022-10-16T05:05:08;6.07;;;4.72;;
67556;SDS011;54387;53.526;49.300;2022-10-16T05:07:40;7.30;;;5.13;;
67556;SDS011;54387;53.526;49.300;2022-10-16T05:10:11;7.78;;;5.00;;
67556;SDS011;54387;53.526;49.300;2022-10-16T05:12:43;13.20;;;5.63;;
67556;SDS011;54387;53.526;49.300;2022-10-16T05:15:14;7.25;;;4.82;;
67556;SDS011;54387;53.526;49.300;2022-10-16T05:17:46;8.75;;;4.50;;
67556;SDS011;54387;53.526;49.300;2022-10-16T05:20:18;8.95;;;4.50;;
67556;SDS011;54387;53.526;49.300;2022-10-16T05:22:50;7.20;;;4.90;;
67556;SDS011;54387;53.526;49.300;2022-10-16T05:25:21;5.95;;;5.00;;
67556;SDS011;54387;53.526;49.300;2022-10-16T05:27:53;6.47;;;4.40;;
67556;SDS011;54387;53.526;49.300;2022-10-16T05:30:24;8.38;;;4.90;;
67556;SDS011;54387;53.526;49.300;2022-10-16T05:32:56;5.70;;;4.35;;
67556;SDS011;54387;53.526;49.300;2022-10-16T05:35:27;6.15;;;4.72;;
67556;SDS011;54387;53.526;49.300;2022-10-16T05:37:58;6.75;;;4.68;;
67556;SDS011;54387;53.526;49.300;2022-10-16T05:40:30;10.30;;;5.20;;
67556;SDS011;54387;53.526;49.300;2022-10-16T05:43:02;6.70;;;4.95;;
67556;SDS011;54387;53.526;49.300;2022-10-16T05:45:33;6.35;;;4.20;;
67556;SDS011;54387;53.526;49.300;2022-10-16T05:48:05;7.85;;;4.80;;
67556;SDS011;54387;53.526;49.300;2022-10-16T05:50:37;6.00;;;4.07;;
67556;SDS011;54387;53.526;49.300;2022-10-16T05:53:08;8.50;;;4.82;;
67556;SDS011;54387;53.526;49.300;2022-10-16T05:55:40;5.80;;;4.47;;
67556;SDS011;54387;53.526;49.300;2022-10-16T05:58:11;7.80;;;4.78;;
67556;SDS011;54387;53.526;49.300;2022-10-16T06:00:43;6.22;;;4.65;;
67556;SDS011;54387;53.526;49.300;2022-10-16T06:03:14;10.20;;;5.38;;
67556;SDS011;54387;53.526;49.300;2022-10-16T06:05:46;7.30;;;4.55;;
67556;SDS011;54387;53.526;49.300;2022-10-16T06:08:18;6.53;;;4.65;;
67556;SDS011;54387;53.526;49.300;2022-10-16T06:11:00;8.27;;;4.57;;
67556;SDS011;54387;53.526;49.300;2022-10-16T06:13:36;7.22;;;4.35;;
67556;SDS011;54387;53.526;49.300;2022-10-16T06:16:09;9.48;;;4.30;;
67556;SDS011;54387;53.526;49.300;2022-10-16T06:18:41;12.23;;;4.97;;
67556;SDS011;54387;53.526;49.300;2022-10-16T06:21:14;5.07;;;3.95;;
67556;SDS011;54387;53.526;49.300;2022-10-16T06:23:48;11.60;;;4.47;;
67556;SDS011;54387;53.526;49.300;2022-10-16T06:26:20;5.93;;;4.18;;
67556;SDS011;54387;53.526;49.300;2022-10-16T06:31:26;6.22;;;4.25;;
67556;SDS011;54387;53.526;49.300;2022-10-16T06:34:00;6.47;;;4.32;;
67556;SDS011;54387;53.526;49.300;2022-10-16T06:36:32;6.15;;;4.50;;
67556;SDS011;54387;53.526;49.300;2022-10-16T06:39:04;6.00;;;3.95;;
67556;SDS011;54387;53.526;49.300;2022-10-16T06:41:38;6.63;;;3.40;;
67556;SDS011;54387;53.526;49.300;2022-10-16T06:44:09;6.95;;;2.95;;
67556;SDS011;54387;53.526;49.300;2022-10-16T06:46:41;7.68;;;3.72;;
67556;SDS011;54387;53.526;49.300;2022-10-16T06:49:12;6.45;;;3.70;;
67556;SDS011;54387;53.526;49.300;2022-10-16T06:51:46;8.85;;;3.63;;
67556;SDS011;54387;53.526;49.300;2022-10-16T06:54:17;6.55;;;3.55;;
67556;SDS011;54387;53.526;49.300;2022-10-16T06:56:50;6.32;;;3.35;;
67556;SDS011;54387;53.526;49.300;2022-10-16T06:59:22;4.35;;;3.40;;
67556;SDS011;54387;53.526;49.300;2022-10-16T07:01:53;5.20;;;2.63;;
67556;SDS011;54387;53.526;49.300;2022-10-16T07:04:25;4.53;;;2.80;;
67556;SDS011;54387;53.526;49.300;2022-10-16T07:06:56;4.53;;;3.00;;
67556;SDS011;54387;53.526;49.300;2022-10-16T07:09:28;8.13;;;2.60;;
67556;SDS011;54387;53.526;49.300;2022-10-16T07:11:59;4.57;;;2.60;;
67556;SDS011;54387;53.526;49.300;2022-10-16T07:14:31;9.93;;;3.33;;
67556;SDS011;54387;53.526;49.300;2022-10-16T07:17:02;3.95;;;2.47;;
67556;SDS011;54387;53.526;49.300;2022-10-16T07:19:34;4.15;;;2.88;;
67556;SDS011;54387;53.526;49.300;2022-10-16T07:22:06;4.53;;;2.75;;
67556;SDS011;54387;53.526;49.300;2022-10-16T07:24:37;3.85;;;2.50;;
67556;SDS011;54387;53.526;49.300;2022-10-16T07:27:09;8.77;;;2.50;;
67556;SDS011;54387;53.526;49.300;2022-10-16T07:29:40;3.38;;;2.20;;
67556;SDS011;54387;53.526;49.300;2022-10-16T07:32:12;3.42;;;2.17;;
67556;SDS011;54387;53.526;49.300;2022-10-16T07:34:43;4.45;;;2.10;;
67556;SDS011;54387;53.526;49.300;2022-10-16T07:37:16;5.40;;;2.95;;
67556;SDS011;54387;53.526;49.300;2022-10-16T07:39:47;3.72;;;2.30;;
67556;SDS011;54387;53.526;49.300;2022-10-16T07:42:19;3.17;;;1.70;;
67556;SDS011;54387;53.526;49.300;2022-10-16T07:44:50;4.35;;;1.35;;
67556;SDS011;54387;53.526;49.300;2022-10-16T07:47:22;2.65;;;1.88;;
67556;SDS011;54387;53.526;49.300;2022-10-16T07:49:53;3.45;;;1.63;;
67556;SDS011;54387;53.526;49.300;2022-10-16T07:52:25;7.35;;;1.90;;
67556;SDS011;54387;53.526;49.300;2022-10-16T07:54:56;4.05;;;1.65;;
67556;SDS011;54387;53.526;49.300;2022-10-16T07:57:28;5.05;;;1.70;;
67556;SDS011;54387;53.526;49.300;2022-10-16T07:59:59;3.08;;;1.73;;
67556;SDS011;54387;53.526;49.300;2022-10-16T08:02:31;5.70;;;2.10;;
67556;SDS011;54387;53.526;49.300;2022-10-16T08:05:03;2.80;;;1.88;;
67556;SDS011;54387;53.526;49.300;2022-10-16T08:07:35;7.32;;;2.13;;
67556;SDS011;54387;53.526;49.300;2022-10-16T08:10:06;3.88;;;2.13;;
67556;SDS011;54387;53.526;49.300;2022-10-16T08:12:46;3.65;;;1.98;;
67556;SDS011;54387;53.526;49.300;2022-10-16T08:15:18;2.13;;;1.40;;
67556;SDS011;54387;53.526;49.300;2022-10-16T08:17:59;3.85;;;1.67;;
67556;SDS011;54387;53.526;49.300;2022-10-16T08:20:35;2.70;;;1.50;;
67556;SDS011;54387;53.526;49.300;2022-10-16T08:23:06;2.80;;;1.67;;
67556;SDS011;54387;53.526;49.300;2022-10-16T08:25:39;3.35;;;2.00;;
67556;SDS011;54387;53.526;49.300;2022-10-16T08:28:11;2.97;;;1.48;;
67556;SDS011;54387;53.526;49.300;2022-10-16T08:30:43;5.90;;;1.88;;
67556;SDS011;54387;53.526;49.300;2022-10-16T08:33:14;6.28;;;1.63;;
67556;SDS011;54387;53.526;49.300;2022-10-16T08:35:52;4.53;;;1.77;;
67556;SDS011;54387;53.526;49.300;2022-10-16T08:38:24;4.07;;;1.63;;
67556;SDS011;54387;53.526;49.300;2022-10-16T08:41:19;3.50;;;1.60;;
67556;SDS011;54387;53.526;49.300;2022-10-16T08:47:08;3.55;;;1.90;;
67556;SDS011;54387;53.526;49.300;2022-10-16T08:50:12;3.47;;;1.60;;
67556;SDS011;54387;53.526;49.300;2022-10-16T08:52:44;6.85;;;2.17;;
67556;SDS011;54387;53.526;49.300;2022-10-16T08:55:33;3.58;;;1.90;;
67556;SDS011;54387;53.526;49.300;2022-10-16T08:58:20;2.92;;;1.80;;
67556;SDS011;54387;53.526;49.300;2022-10-16T09:00:54;4.55;;;1.98;;
67556;SDS011;54387;53.526;49.300;2022-10-16T09:06:41;4.57;;;2.00;;
67556;SDS011;54387;53.526;49.300;2022-10-16T09:09:31;2.95;;;1.92;;
67556;SDS011;54387;53.526;49.300;2022-10-16T09:17:59;4.38;;;2.30;;
67556;SDS011;54387;53.526;49.300;2022-10-16T09:23:50;3.10;;;2.08;;
67556;SDS011;54387;53.526;49.300;2022-10-16T09:26:22;6.05;;;2.22;;
67556;SDS011;54387;53.526;49.300;2022-10-16T09:28:53;3.05;;;1.77;;
67556;SDS011;54387;53.526;49.300;2022-10-16T09:31:25;5.43;;;1.98;;
67556;SDS011;54387;53.526;49.300;2022-10-16T09:33:59;3.78;;;2.35;;
67556;SDS011;54387;53.526;49.300;2022-10-16T09:36:40;3.58;;;2.25;;
67556;SDS011;54387;53.526;49.300;2022-10-16T09:39:14;4.18;;;2.40;;
67556;SDS011;54387;53.526;49.300;2022-10-16T09:41:46;4.13;;;2.53;;
67556;SDS011;54387;53.526;49.300;2022-10-16T09:44:36;2.92;;;2.10;;
67556;SDS011;54387;53.526;49.300;2022-10-16T09:47:15;3.78;;;2.00;;
67556;SDS011;54387;53.526;49.300;2022-10-16T09:49:56;6.07;;;2.20;;
67556;SDS011;54387;53.526;49.300;2022-10-16T09:52:32;3.90;;;2.23;;
67556;SDS011;54387;53.526;49.300;2022-10-16T09:55:14;2.90;;;1.65;;
67556;SDS011;54387;53.526;49.300;2022-10-16T09:57:54;3.88;;;2.33;;
67556;SDS011;54387;53.526;49.300;2022-10-16T10:00:26;3.30;;;2.10;;
67556;SDS011;54387;53.526;49.300;2022-10-16T10:02:57;4.75;;;1.85;;
67556;SDS011;54387;53.526;49.300;2022-10-16T10:05:29;4.93;;;2.55;;
67556;SDS011;54387;53.526;49.300;2022-10-16T10:08:01;4.35;;;2.15;;
67556;SDS011;54387;53.526;49.300;2022-10-16T10:10:40;3.25;;;2.03;;
67556;SDS011;54387;53.526;49.300;2022-10-16T10:13:19;4.03;;;2.13;;
67556;SDS011;54387;53.526;49.300;2022-10-16T10:15:52;6.63;;;3.78;;
67556;SDS011;54387;53.526;49.300;2022-10-16T10:18:24;4.20;;;2.20;;
67556;SDS011;54387;53.526;49.300;2022-10-16T10:20:57;3.40;;;2.00;;
67556;SDS011;54387;53.526;49.300;2022-10-16T10:23:30;4.95;;;3.03;;
67556;SDS011;54387;53.526;49.300;2022-10-16T10:31:47;6.07;;;2.20;;
67556;SDS011;54387;53.526;49.300;2022-10-16T10:42:50;2.35;;;1.80;;
67556;SDS011;54387;53.526;49.300;2022-10-16T10:45:43;5.10;;;2.00;;
67556;SDS011;54387;53.526;49.300;2022-10-16T10:49:00;7.13;;;2.97;;
67556;SDS011;54387;53.526;49.300;2022-10-16T10:54:38;2.97;;;2.00;;
67556;SDS011;54387;53.526;49.300;2022-10-16T10:57:21;4.03;;;2.20;;
67556;SDS011;54387;53.526;49.300;2022-10-16T11:08:00;5.38;;;2.28;;
67556;SDS011;54387;53.526;49.300;2022-10-16T11:10:51;9.02;;;4.10;;
67556;SDS011;54387;53.526;49.300;2022-10-16T11:19:05;7.88;;;3.38;;
67556;SDS011;54387;53.526;49.300;2022-10-16T11:28:11;6.43;;;2.00;;
67556;SDS011;54387;53.526;49.300;2022-10-16T11:30:26;3.85;;;1.80;;
67556;SDS011;54387;53.526;49.300;2022-10-16T11:33:23;7.22;;;2.65;;
67556;SDS011;54387;53.526;49.300;2022-10-16T11:36:06;4.45;;;2.40;;
67556;SDS011;54387;53.526;49.300;2022-10-16T11:38:48;2.78;;;1.80;;
67556;SDS011;54387;53.526;49.300;2022-10-16T11:41:32;3.88;;;2.30;;
67556;SDS011;54387;53.526;49.300;2022-10-16T11:49:59;4.15;;;1.88;;
67556;SDS011;54387;53.526;49.300;2022-10-16T11:52:48;4.70;;;1.55;;
67556;SDS011;54387;53.526;49.300;2022-10-16T11:58:31;3.17;;;1.90;;
67556;SDS011;54387;53.526;49.300;2022-10-16T12:01:19;3.97;;;1.65;;
67556;SDS011;54387;53.526;49.300;2022-10-16T12:04:41;4.28;;;2.25;;
67556;SDS011;54387;53.526;49.300;2022-10-16T12:07:14;3.17;;;1.80;;
67556;SDS011;54387;53.526;49.300;2022-10-16T12:09:50;3.65;;;1.88;;
67556;SDS011;54387;53.526;49.300;2022-10-16T12:17:37;3.33;;;1.77;;
67556;SDS011;54387;53.526;49.300;2022-10-16T12:22:50;9.25;;;2.60;;
67556;SDS011;54387;53.526;49.300;2022-10-16T12:30:36;7.40;;;2.00;;
67556;SDS011;54387;53.526;49.300;2022-10-16T12:33:27;4.03;;;2.05;;
67556;SDS011;54387;53.526;49.300;2022-10-16T12:36:08;3.78;;;2.08;;
67556;SDS011;54387;53.526;49.300;2022-10-16T12:38:46;4.80;;;2.17;;
67556;SDS011;54387;53.526;49.300;2022-10-16T12:44:20;4.45;;;2.20;;
67556;SDS011;54387;53.526;49.300;2022-10-16T12:46:57;6.25;;;3.25;;
67556;SDS011;54387;53.526;49.300;2022-10-16T12:49:29;7.10;;;2.95;;
67556;SDS011;54387;53.526;49.300;2022-10-16T12:52:31;7.53;;;3.05;;
67556;SDS011;54387;53.526;49.300;2022-10-16T12:55:12;7.32;;;3.22;;
67556;SDS011;54387;53.526;49.300;2022-10-16T13:18:43;9.27;;;3.47;;
67556;SDS011;54387;53.526;49.300;2022-10-16T13:29:59;8.55;;;3.35;;
67556;SDS011;54387;53.526;49.300;2022-10-16T13:32:39;7.53;;;3.80;;
67556;SDS011;54387;53.526;49.300;2022-10-16T13:35:22;7.40;;;3.40;;
67556;SDS011;54387;53.526;49.300;2022-10-16T13:43:42;6.20;;;3.83;;
67556;SDS011;54387;53.526;49.300;2022-10-16T13:46:20;11.80;;;4.25;;
67556;SDS011;54387;53.526;49.300;2022-10-16T13:49:00;8.75;;;4.45;;
67556;SDS011;54387;53.526;49.300;2022-10-16T13:51:36;10.15;;;5.22;;
67556;SDS011;54387;53.526;49.300;2022-10-16T13:54:09;10.90;;;5.40;;
67556;SDS011;54387;53.526;49.300;2022-10-16T13:56:43;11.27;;;5.97;;
67556;SDS011;54387;53.526;49.300;2022-10-16T13:59:25;12.02;;;5.30;;
67556;SDS011;54387;53.526;49.300;2022-10-16T14:01:59;15.80;;;6.50;;
67556;SDS011;54387;53.526;49.300;2022-10-16T14:04:37;14.68;;;6.55;;
67556;SDS011;54387;53.526;49.300;2022-10-16T14:07:14;15.27;;;6.53;;
67556;SDS011;54387;53.526;49.300;2022-10-16T14:12:30;18.35;;;7.88;;
67556;SDS011;54387;53.526;49.300;2022-10-16T14:15:02;18.65;;;8.27;;
67556;SDS011;54387;53.526;49.300;2022-10-16T14:17:34;17.50;;;8.52;;
67556;SDS011;54387;53.526;49.300;2022-10-16T14:20:12;22.15;;;8.60;;
67556;SDS011;54387;53.526;49.300;2022-10-16T14:22:46;21.80;;;8.20;;
67556;SDS011;54387;53.526;49.300;2022-10-16T14:25:29;21.73;;;7.35;;
67556;SDS011;54387;53.526;49.300;2022-10-16T14:30:35;21.65;;;6.95;;
67556;SDS011;54387;53.526;49.300;2022-10-16T14:33:20;19.35;;;7.20;;
67556;SDS011;54387;53.526;49.300;2022-10-16T14:38:40;17.80;;;7.18;;
67556;SDS011;54387;53.526;49.300;2022-10-16T14:43:49;30.23;;;12.27;;
67556;SDS011;54387;53.526;49.300;2022-10-16T14:46:28;28.00;;;10.93;;
67556;SDS011;54387;53.526;49.300;2022-10-16T14:51:41;18.38;;;8.00;;
67556;SDS011;54387;53.526;49.300;2022-10-16T14:54:16;23.05;;;8.55;;
67556;SDS011;54387;53.526;49.300;2022-10-16T15:01:57;21.23;;;7.63;;
67556;SDS011;54387;53.526;49.300;2022-10-16T15:04:29;21.58;;;7.28;;
67556;SDS011;54387;53.526;49.300;2022-10-16T15:07:00;16.90;;;7.57;;
67556;SDS011;54387;53.526;49.300;2022-10-16T15:09:32;21.20;;;7.25;;
67556;SDS011;54387;53.526;49.300;2022-10-16T15:12:04;30.00;;;7.10;;
67556;SDS011;54387;53.526;49.300;2022-10-16T15:14:36;23.05;;;7.15;;
67556;SDS011;54387;53.526;49.300;2022-10-16T15:17:08;16.17;;;7.25;;
67556;SDS011;54387;53.526;49.300;2022-10-16T15:19:41;23.13;;;8.02;;
67556;SDS011;54387;53.526;49.300;2022-10-16T15:22:12;21.02;;;8.73;;
67556;SDS011;54387;53.526;49.300;2022-10-16T15:24:44;17.15;;;7.63;;
67556;SDS011;54387;53.526;49.300;2022-10-16T15:27:15;22.00;;;8.40;;
67556;SDS011;54387;53.526;49.300;2022-10-16T15:29:47;18.00;;;8.02;;
67556;SDS011;54387;53.526;49.300;2022-10-16T15:32:18;16.55;;;7.68;;
67556;SDS011;54387;53.526;49.300;2022-10-16T15:34:50;24.63;;;9.43;;
67556;SDS011;54387;53.526;49.300;2022-10-16T15:37:21;17.88;;;8.73;;
67556;SDS011;54387;53.526;49.300;2022-10-16T15:39:53;16.85;;;7.80;;
67556;SDS011;54387;53.526;49.300;2022-10-16T15:42:24;20.50;;;8.50;;
67556;SDS011;54387;53.526;49.300;2022-10-16T15:44:56;21.80;;;8.15;;
67556;SDS011;54387;53.526;49.300;2022-10-16T15:47:27;20.80;;;9.10;;
67556;SDS011;54387;53.526;49.300;2022-10-16T15:49:59;23.30;;;8.70;;
67556;SDS011;54387;53.526;49.300;2022-10-16T15:52:30;12.23;;;7.75;;
67556;SDS011;54387;53.526;49.300;2022-10-16T15:55:02;20.05;;;8.48;;
67556;SDS011;54387;53.526;49.300;2022-10-16T15:57:34;18.30;;;7.60;;
67556;SDS011;54387;53.526;49.300;2022-10-16T16:00:10;20.23;;;8.52;;
67556;SDS011;54387;53.526;49.300;2022-10-16T16:02:44;15.43;;;7.43;;
67556;SDS011;54387;53.526;49.300;2022-10-16T16:05:22;22.65;;;8.35;;
67556;SDS011;54387;53.526;49.300;2022-10-16T16:07:54;26.90;;;9.27;;
67556;SDS011;54387;53.526;49.300;2022-10-16T16:10:26;20.08;;;8.48;;
67556;SDS011;54387;53.526;49.300;2022-10-16T16:12:57;22.20;;;8.18;;
67556;SDS011;54387;53.526;49.300;2022-10-16T16:15:29;15.02;;;7.78;;
67556;SDS011;54387;53.526;49.300;2022-10-16T16:18:01;18.08;;;7.57;;
67556;SDS011;54387;53.526;49.300;2022-10-16T16:20:34;18.02;;;7.57;;
67556;SDS011;54387;53.526;49.300;2022-10-16T16:23:05;22.83;;;8.68;;
67556;SDS011;54387;53.526;49.300;2022-10-16T16:25:37;22.90;;;8.27;;
67556;SDS011;54387;53.526;49.300;2022-10-16T16:28:08;13.20;;;7.63;;
67556;SDS011;54387;53.526;49.300;2022-10-16T16:30:41;15.30;;;8.02;;
67556;SDS011;54387;53.526;49.300;2022-10-16T16:33:12;18.02;;;8.30;;
67556;SDS011;54387;53.526;49.300;2022-10-16T16:35:44;15.75;;;7.45;;
67556;SDS011;54387;53.526;49.300;2022-10-16T16:38:15;18.92;;;9.00;;
67556;SDS011;54387;53.526;49.300;2022-10-16T16:40:47;19.52;;;8.73;;
67556;SDS011;54387;53.526;49.300;2022-10-16T16:43:19;15.13;;;7.75;;
67556;SDS011;54387;53.526;49.300;2022-10-16T16:45:54;15.02;;;7.22;;
67556;SDS011;54387;53.526;49.300;2022-10-16T16:48:25;20.50;;;7.97;;
67556;SDS011;54387;53.526;49.300;2022-10-16T16:53:36;15.88;;;7.97;;
67556;SDS011;54387;53.526;49.300;2022-10-16T16:56:08;15.07;;;8.30;;
67556;SDS011;54387;53.526;49.300;2022-10-16T16:58:40;14.15;;;7.85;;
67556;SDS011;54387;53.526;49.300;2022-10-16T17:01:11;19.25;;;8.48;;
67556;SDS011;54387;53.526;49.300;2022-10-16T17:03:43;20.67;;;8.32;;
67556;SDS011;54387;53.526;49.300;2022-10-16T17:06:16;22.25;;;8.73;;
67556;SDS011;54387;53.526;49.300;2022-10-16T17:08:50;17.20;;;8.27;;
67556;SDS011;54387;53.526;49.300;2022-10-16T17:11:23;21.15;;;8.35;;
67556;SDS011;54387;53.526;49.300;2022-10-16T17:13:58;19.33;;;9.07;;
67556;SDS011;54387;53.526;49.300;2022-10-16T17:16:32;19.17;;;8.60;;
67556;SDS011;54387;53.526;49.300;2022-10-16T17:19:06;23.67;;;9.48;;
67556;SDS011;54387;53.526;49.300;2022-10-16T17:21:41;21.77;;;10.77;;
67556;SDS011;54387;53.526;49.300;2022-10-16T17:24:13;27.42;;;10.02;;
67556;SDS011;54387;53.526;49.300;2022-10-16T17:26:44;15.45;;;8.23;;
67556;SDS011;54387;53.526;49.300;2022-10-16T17:29:18;15.75;;;9.27;;
67556;SDS011;54387;53.526;49.300;2022-10-16T17:31:50;25.35;;;9.13;;
67556;SDS011;54387;53.526;49.300;2022-10-16T17:34:21;19.92;;;10.20;;
67556;SDS011;54387;53.526;49.300;2022-10-16T17:36:53;21.02;;;9.05;;
67556;SDS011;54387;53.526;49.300;2022-10-16T17:39:24;21.23;;;8.45;;
67556;SDS011;54387;53.526;49.300;2022-10-16T17:41:56;24.23;;;10.13;;
67556;SDS011;54387;53.526;49.300;2022-10-16T17:44:27;32.67;;;11.48;;